createdAt,value
2018-03-28T00:01:55.962Z,98861.03
2018-03-28T00:04:23.593Z,98855.98
2018-03-28T00:06:51.137Z,98842.77
2018-03-28T00:09:18.931Z,98849.39
2018-03-28T00:11:46.595Z,98847.63
2018-03-28T00:14:14.215Z,98840.77
2018-03-28T00:16:41.985Z,98840.56
2018-03-28T00:19:09.675Z,98836.44
2018-03-28T00:21:37.241Z,98834.14
2018-03-28T00:24:05.039Z,98831.46
2018-03-28T00:26:32.620Z,98831.53
2018-03-28T00:29:00.197Z,98839.73
2018-03-28T00:31:27.956Z,98835.83
2018-03-28T00:33:55.673Z,98841.99
2018-03-28T00:36:23.234Z,98845.06
2018-03-28T00:38:50.806Z,98842.91
2018-03-28T00:41:18.564Z,98841.72
2018-03-28T00:43:46.384Z,98835.20
2018-03-28T00:46:14.102Z,98829.53
2018-03-28T00:48:41.921Z,98824.91
2018-03-28T00:51:21.154Z,98821.82
2018-03-28T00:53:48.997Z,98818.39
2018-03-28T00:56:16.570Z,98817.49
2018-03-28T00:58:44.138Z,98820.12
2018-03-28T01:01:11.735Z,98820.72
2018-03-28T01:03:39.294Z,98822.59
2018-03-28T01:06:06.965Z,98826.20
2018-03-28T01:08:34.674Z,98821.52
2018-03-28T01:11:02.290Z,98817.38
2018-03-28T01:13:29.865Z,98825.61
2018-03-28T01:15:57.549Z,98831.11
2018-03-28T01:18:25.136Z,98823.44
2018-03-28T01:20:52.893Z,98819.50
2018-03-28T01:23:20.502Z,98819.72
2018-03-28T01:25:48.068Z,98822.19
2018-03-28T01:28:15.679Z,98817.75
2018-03-28T01:30:43.242Z,98809.16
2018-03-28T01:33:10.838Z,98808.91
2018-03-28T01:35:38.406Z,98806.77
2018-03-28T01:38:06.218Z,98811.87
2018-03-28T01:40:33.786Z,98817.00
2018-03-28T01:43:01.346Z,98815.52
2018-03-28T01:45:29.167Z,98816.86
2018-03-28T01:47:56.992Z,98813.52
2018-03-28T01:50:24.811Z,98810.70
2018-03-28T01:52:52.376Z,98816.38
2018-03-28T01:55:20.145Z,98822.64
2018-03-28T01:57:47.964Z,98823.12
2018-03-28T02:00:15.530Z,98820.16
2018-03-28T02:02:43.144Z,98813.69
2018-03-28T02:05:10.779Z,98815.62
2018-03-28T02:07:38.310Z,98809.28
2018-03-28T02:10:05.873Z,98807.75
2018-03-28T02:12:33.426Z,98800.80
2018-03-28T02:15:01.188Z,98804.27
2018-03-28T02:17:29.009Z,98813.84
2018-03-28T02:19:56.925Z,98810.89
2018-03-28T02:22:24.482Z,98802.95
2018-03-28T02:24:52.226Z,98809.78
2018-03-28T02:27:19.802Z,98812.05
2018-03-28T02:29:47.598Z,98819.97
2018-03-28T02:32:15.163Z,98818.06
2018-03-28T02:34:42.814Z,98817.25
2018-03-28T02:37:10.632Z,98819.36
2018-03-28T02:39:38.231Z,98819.36
2018-03-28T02:42:05.806Z,98807.89
2018-03-28T02:44:33.495Z,98813.88
2018-03-28T02:47:01.089Z,98812.28
2018-03-28T02:49:28.658Z,98799.75
2018-03-28T02:51:56.227Z,98793.17
2018-03-28T02:54:23.866Z,98794.39
2018-03-28T02:56:51.440Z,98801.16
2018-03-28T02:59:18.993Z,98797.64
2018-03-28T03:01:46.563Z,98804.63
2018-03-28T03:04:14.127Z,98798.39
2018-03-28T03:06:41.702Z,98815.01
2018-03-28T03:09:09.300Z,98822.28
2018-03-28T03:11:36.984Z,98823.33
2018-03-28T03:14:04.700Z,98823.36
2018-03-28T03:16:32.415Z,98824.53
2018-03-28T03:18:59.985Z,98819.37
2018-03-28T03:21:27.549Z,98820.20
2018-03-28T03:23:55.182Z,98835.16
2018-03-28T03:26:22.746Z,98831.38
2018-03-28T03:28:50.497Z,98844.13
2018-03-28T03:31:18.069Z,98840.01
2018-03-28T03:33:45.644Z,98836.50
2018-03-28T03:36:13.209Z,98829.42
2018-03-28T03:38:40.765Z,98819.33
2018-03-28T03:41:08.329Z,98819.75
2018-03-28T03:43:36.132Z,98818.32
2018-03-28T03:46:03.759Z,98816.50
2018-03-28T03:48:31.460Z,98824.27
2018-03-28T03:50:59.018Z,98832.12
2018-03-28T03:53:26.585Z,98824.73
2018-03-28T03:55:54.143Z,98824.67
2018-03-28T03:58:21.723Z,98828.59
2018-03-28T04:00:49.433Z,98820.75
2018-03-28T04:03:17.060Z,98821.28
2018-03-28T04:05:44.896Z,98809.30
2018-03-28T04:08:12.446Z,98816.98
2018-03-28T04:10:40.197Z,98819.44
2018-03-28T04:13:07.915Z,98810.34
2018-03-28T04:15:35.630Z,98818.37
2018-03-28T04:18:03.196Z,98814.10
2018-03-28T04:20:30.814Z,98815.56
2018-03-28T04:22:58.381Z,98797.84
2018-03-28T04:25:25.938Z,98800.11
2018-03-28T04:27:53.545Z,98820.65
2018-03-28T04:30:21.252Z,98832.30
2018-03-28T04:32:48.884Z,98838.09
2018-03-28T04:35:16.449Z,98841.48
2018-03-28T04:37:44.087Z,98829.94
2018-03-28T04:40:11.846Z,98816.02
2018-03-28T04:42:39.422Z,98814.56
2018-03-28T04:45:07.012Z,98809.56
2018-03-28T04:47:34.570Z,98819.63
2018-03-28T04:50:02.306Z,98826.38
2018-03-28T04:52:30.033Z,98845.66
2018-03-28T04:54:57.682Z,98842.30
2018-03-28T04:57:25.239Z,98845.75
2018-03-28T04:59:52.797Z,98845.44
2018-03-28T05:02:20.605Z,98849.88
2018-03-28T05:04:48.166Z,98844.03
2018-03-28T05:07:15.942Z,98835.06
2018-03-28T05:09:43.636Z,98838.61
2018-03-28T05:12:11.269Z,98847.38
2018-03-28T05:14:39.119Z,98845.95
2018-03-28T05:17:06.914Z,98852.52
2018-03-28T05:19:34.523Z,98851.47
2018-03-28T05:22:02.217Z,98861.62
2018-03-28T05:24:29.778Z,98857.20
2018-03-28T05:26:57.486Z,98856.16
2018-03-28T05:29:25.108Z,98850.94
2018-03-28T05:31:52.665Z,98854.66
2018-03-28T05:34:20.438Z,98852.25
2018-03-28T05:36:48.149Z,98844.48
2018-03-28T05:39:15.725Z,98856.55
2018-03-28T05:41:43.385Z,98856.42
2018-03-28T05:44:10.962Z,98861.61
2018-03-28T05:46:38.643Z,98864.93
2018-03-28T05:49:06.420Z,98866.80
2018-03-28T05:51:33.991Z,98871.43
2018-03-28T05:54:01.822Z,98866.27
2018-03-28T05:56:29.602Z,98872.95
2018-03-28T05:58:57.322Z,98876.50
2018-03-28T06:01:25.144Z,98878.33
2018-03-28T06:03:52.957Z,98880.68
2018-03-28T06:06:20.660Z,98886.58
2018-03-28T06:08:48.213Z,98891.56
2018-03-28T06:11:16.011Z,98890.04
2018-03-28T06:13:43.808Z,98894.58
2018-03-28T06:16:11.525Z,98883.73
2018-03-28T06:18:39.746Z,98888.02
2018-03-28T06:21:07.457Z,98882.45
2018-03-28T06:23:35.070Z,98885.60
2018-03-28T06:26:02.631Z,98881.33
2018-03-28T06:28:30.339Z,98884.64
2018-03-28T06:30:58.158Z,98890.37
2018-03-28T06:33:25.767Z,98895.13
2018-03-28T06:35:53.347Z,98894.89
2018-03-28T06:38:20.915Z,98898.43
2018-03-28T06:40:48.729Z,98896.05
2018-03-28T06:43:16.339Z,98906.89
2018-03-28T06:45:43.916Z,98904.78
2018-03-28T06:48:11.490Z,98898.73
2018-03-28T06:50:39.053Z,98899.03
2018-03-28T06:53:06.633Z,98895.19
2018-03-28T06:55:34.199Z,98895.55
2018-03-28T06:58:01.845Z,98903.20
2018-03-28T07:00:29.403Z,98895.42
2018-03-28T07:02:57.195Z,98894.05
2018-03-28T07:05:24.779Z,98908.83
2018-03-28T07:07:52.346Z,98912.02
2018-03-28T07:10:20.143Z,98910.98
2018-03-28T07:12:47.722Z,98911.59
2018-03-28T07:15:15.346Z,98911.75
2018-03-28T07:17:43.097Z,98915.61
2018-03-28T07:20:10.919Z,98903.28
2018-03-28T07:22:38.489Z,98908.92
2018-03-28T07:25:06.137Z,98908.92
2018-03-28T07:27:33.863Z,98906.88
2018-03-28T07:30:01.435Z,98904.48
2018-03-28T07:32:28.989Z,98901.82
2018-03-28T07:34:56.723Z,98901.05
2018-03-28T07:37:24.298Z,98900.66
2018-03-28T07:39:51.874Z,98899.00
2018-03-28T07:42:19.678Z,98896.89
2018-03-28T07:44:47.289Z,98896.37
2018-03-28T07:47:15.014Z,98893.57
2018-03-28T07:49:42.834Z,98893.73
2018-03-28T07:52:10.653Z,98899.53
2018-03-28T07:54:38.214Z,98901.70
2018-03-28T07:57:05.866Z,98901.78
2018-03-28T07:59:33.422Z,98900.31
2018-03-28T08:02:01.047Z,98902.80
2018-03-28T08:04:28.840Z,98909.83
2018-03-28T08:06:56.658Z,98911.87
2018-03-28T08:09:24.249Z,98909.10
2018-03-28T08:11:51.811Z,98907.87
2018-03-28T08:14:19.434Z,98919.05
2018-03-28T08:16:46.998Z,98908.39
2018-03-28T08:19:14.880Z,98912.48
2018-03-28T08:21:42.555Z,98904.37
2018-03-28T08:24:10.153Z,98914.45
2018-03-28T08:26:37.722Z,98912.00
2018-03-28T08:29:05.520Z,98907.65
2018-03-28T08:31:33.343Z,98897.42
2018-03-28T08:34:01.036Z,98892.50
2018-03-28T08:36:28.754Z,98885.94
2018-03-28T08:38:56.493Z,98882.98
2018-03-28T08:41:24.049Z,98892.52
2018-03-28T08:43:51.618Z,98880.34
2018-03-28T08:46:19.345Z,98884.31
2018-03-28T08:48:47.164Z,98880.80
2018-03-28T08:51:14.984Z,98885.64
2018-03-28T08:53:42.766Z,98884.62
2018-03-28T08:56:10.326Z,98882.28
2018-03-28T08:58:37.885Z,98879.81
2018-03-28T09:01:05.482Z,98880.39
2018-03-28T09:03:33.273Z,98874.91
2018-03-28T09:06:00.842Z,98872.00
2018-03-28T09:08:28.500Z,98872.91
2018-03-28T09:10:56.327Z,98865.86
2018-03-28T09:13:23.886Z,98864.27
2018-03-28T09:15:51.448Z,98862.56
2018-03-28T09:18:19.257Z,98853.83
2018-03-28T09:20:46.814Z,98855.33
2018-03-28T09:23:14.381Z,98855.20
2018-03-28T09:25:41.956Z,98854.70
2018-03-28T09:28:09.652Z,98850.19
2018-03-28T09:30:37.224Z,98845.25
2018-03-28T09:33:04.810Z,98839.11
2018-03-28T09:35:32.382Z,98842.00
2018-03-28T09:37:59.942Z,98844.63
2018-03-28T09:40:27.533Z,98833.41
2018-03-28T09:42:55.220Z,98838.22
2018-03-28T09:45:23.076Z,98837.63
2018-03-28T09:47:50.630Z,98833.77
2018-03-28T09:50:18.192Z,98826.59
2018-03-28T09:52:45.930Z,98820.07
2018-03-28T09:55:13.640Z,98824.48
2018-03-28T09:57:41.210Z,98820.30
2018-03-28T10:00:09.087Z,98817.01
2018-03-28T10:02:42.118Z,98808.87
2018-03-28T10:05:11.662Z,98805.28
2018-03-28T10:07:39.234Z,98803.94
2018-03-28T10:10:07.082Z,98796.70
2018-03-28T10:12:34.673Z,98801.89
2018-03-28T10:15:02.535Z,98797.00
2018-03-28T10:17:30.108Z,98788.27
2018-03-28T10:19:57.732Z,98788.25
2018-03-28T10:22:25.296Z,98787.58
2018-03-28T10:24:52.875Z,98784.10
2018-03-28T10:27:20.709Z,98779.36
2018-03-28T10:29:48.538Z,98782.80
2018-03-28T10:32:16.117Z,98772.68
2018-03-28T10:34:43.839Z,98774.49
2018-03-28T10:37:11.681Z,98774.55
2018-03-28T10:39:39.242Z,98779.70
2018-03-28T10:42:06.806Z,98773.66
2018-03-28T10:44:34.378Z,98782.05
2018-03-28T10:47:02.154Z,98785.45
2018-03-28T10:49:29.971Z,98789.34
2018-03-28T10:51:57.795Z,98782.69
2018-03-28T10:54:25.421Z,98777.97
2018-03-28T10:56:53.106Z,98781.92
2018-03-28T10:59:20.684Z,98779.71
2018-03-28T11:01:48.266Z,98785.41
2018-03-28T11:04:16.081Z,98786.98
2018-03-28T11:06:43.899Z,98777.06
2018-03-28T11:09:11.458Z,98781.57
2018-03-28T11:11:39.081Z,98785.11
2018-03-28T11:14:06.650Z,98761.51
2018-03-28T11:16:34.469Z,98761.94
2018-03-28T11:19:02.070Z,98770.14
2018-03-28T11:21:29.649Z,98757.68
2018-03-28T11:23:57.236Z,98749.37
2018-03-28T11:26:24.832Z,98746.34
2018-03-28T11:28:52.623Z,98746.59
2018-03-28T11:31:20.477Z,98742.66
2018-03-28T11:33:48.051Z,98742.32
2018-03-28T11:36:15.696Z,98739.64
2018-03-28T11:38:43.264Z,98735.94
2018-03-28T11:41:10.845Z,98722.76
2018-03-28T11:43:38.566Z,98726.52
2018-03-28T11:46:06.365Z,98727.81
2018-03-28T11:48:33.931Z,98720.02
2018-03-28T11:51:01.506Z,98723.78
2018-03-28T11:53:29.073Z,98736.29
2018-03-28T11:55:56.654Z,98722.03
2018-03-28T11:58:24.287Z,98712.92
2018-03-28T12:00:51.861Z,98712.63
2018-03-28T12:03:19.422Z,98705.45
2018-03-28T12:05:47.004Z,98699.88
2018-03-28T12:08:14.744Z,98698.29
2018-03-28T12:10:42.354Z,98698.28
2018-03-28T12:13:10.081Z,98694.39
2018-03-28T12:15:37.900Z,98697.70
2018-03-28T12:18:05.478Z,98697.02
2018-03-28T12:20:33.052Z,98685.86
2018-03-28T12:23:00.677Z,98682.70
2018-03-28T12:25:28.252Z,98678.53
2018-03-28T12:27:55.992Z,98674.06
2018-03-28T12:30:23.813Z,98670.95
2018-03-28T12:32:51.625Z,98678.91
2018-03-28T12:35:19.444Z,98669.54
2018-03-28T12:37:47.262Z,98674.09
2018-03-28T12:40:14.980Z,98673.25
2018-03-28T12:42:42.596Z,98668.60
2018-03-28T12:45:10.171Z,98657.01
2018-03-28T12:47:38.035Z,98661.30
2018-03-28T12:50:05.935Z,98660.15
2018-03-28T12:52:33.466Z,98653.72
2018-03-28T12:55:01.043Z,98645.92
2018-03-28T12:57:28.807Z,98650.09
2018-03-28T12:59:56.683Z,98648.30
2018-03-28T13:02:24.391Z,98643.73
2018-03-28T13:04:52.168Z,98647.48
2018-03-28T13:07:19.771Z,98640.25
2018-03-28T13:09:47.599Z,98639.43
2018-03-28T13:12:15.170Z,98641.41
2018-03-28T13:14:42.744Z,98634.39
2018-03-28T13:17:10.370Z,98632.11
2018-03-28T13:19:37.970Z,98631.88
2018-03-28T13:22:05.790Z,98630.73
2018-03-28T13:24:33.607Z,98624.05
2018-03-28T13:27:01.325Z,98615.00
2018-03-28T13:29:28.891Z,98613.81
2018-03-28T13:31:56.446Z,98614.94
2018-03-28T13:34:24.057Z,98616.27
2018-03-28T13:36:51.632Z,98616.80
2018-03-28T13:39:19.200Z,98612.09
2018-03-28T13:41:46.771Z,98614.83
2018-03-28T13:44:14.432Z,98612.21
2018-03-28T13:46:42.055Z,98607.31
2018-03-28T13:49:09.676Z,98607.30
2018-03-28T13:51:37.242Z,98609.84
2018-03-28T13:54:05.021Z,98604.84
2018-03-28T13:56:32.586Z,98601.80
2018-03-28T13:59:00.359Z,98602.40
2018-03-28T14:01:27.933Z,98608.10
2018-03-28T14:03:55.693Z,98602.34
2018-03-28T14:06:23.271Z,98602.05
2018-03-28T14:08:50.848Z,98597.84
2018-03-28T14:11:18.421Z,98604.53
2018-03-28T14:13:45.982Z,98599.69
2018-03-28T14:16:13.719Z,98598.05
2018-03-28T14:18:42.170Z,98596.02
2018-03-28T14:21:09.741Z,98600.73
2018-03-28T14:23:37.334Z,98591.78
2018-03-28T14:26:05.156Z,98593.47
2018-03-28T14:28:32.726Z,98587.82
2018-03-28T14:31:00.493Z,98589.03
2018-03-28T14:33:28.126Z,98582.07
2018-03-28T14:35:55.930Z,98573.70
2018-03-28T14:38:23.496Z,98568.84
2018-03-28T14:40:51.156Z,98571.20
2018-03-28T14:43:18.763Z,98573.42
2018-03-28T14:45:46.466Z,98569.02
2018-03-28T14:48:14.185Z,98578.05
2018-03-28T14:50:41.810Z,98571.45
2018-03-28T14:53:09.366Z,98577.34
2018-03-28T14:55:37.001Z,98577.02
2018-03-28T14:58:04.625Z,98576.23
2018-03-28T15:00:32.198Z,98576.73
2018-03-28T15:03:00.029Z,98568.96
2018-03-28T15:05:27.610Z,98573.16
2018-03-28T15:07:55.230Z,98567.84
2018-03-28T15:10:22.818Z,98566.44
2018-03-28T15:12:50.381Z,98563.91
2018-03-28T15:15:17.955Z,98575.47
2018-03-28T15:17:45.624Z,98568.87
2018-03-28T15:20:13.455Z,98569.20
2018-03-28T15:22:41.018Z,98575.84
2018-03-28T15:25:08.887Z,98578.03
2018-03-28T15:27:36.470Z,98580.31
2018-03-28T15:30:04.324Z,98584.37
2018-03-28T15:32:31.893Z,98591.56
2018-03-28T15:34:59.623Z,98578.86
2018-03-28T15:37:27.271Z,98586.99
2018-03-28T15:39:54.850Z,98585.13
2018-03-28T15:42:22.482Z,98593.89
2018-03-28T15:44:50.117Z,98591.43
2018-03-28T15:47:17.926Z,98591.21
2018-03-28T15:49:45.672Z,98591.91
2018-03-28T15:52:13.277Z,98593.30
2018-03-28T15:54:40.882Z,98592.88
2018-03-28T15:57:08.446Z,98593.16
2018-03-28T15:59:36.075Z,98596.64
2018-03-28T16:02:03.671Z,98596.55
2018-03-28T16:04:31.475Z,98605.53
2018-03-28T16:06:59.062Z,98604.38
2018-03-28T16:09:26.811Z,98592.83
2018-03-28T16:11:54.426Z,98593.48
2018-03-28T16:14:21.995Z,98601.91
2018-03-28T16:16:49.869Z,98601.75
2018-03-28T16:19:17.684Z,98607.13
2018-03-28T16:21:45.242Z,98608.83
2018-03-28T16:24:12.825Z,98613.58
2018-03-28T16:26:40.639Z,98612.75
2018-03-28T16:29:08.213Z,98613.02
2018-03-28T16:31:35.782Z,98615.02
2018-03-28T16:34:03.420Z,98609.08
2018-03-28T16:36:30.990Z,98612.06
2018-03-28T16:38:58.579Z,98617.03
2018-03-28T16:41:26.208Z,98622.84
2018-03-28T16:43:53.933Z,98624.23
2018-03-28T16:46:21.652Z,98632.12
2018-03-28T16:48:49.402Z,98631.08
2018-03-28T16:51:17.108Z,98625.94
2018-03-28T16:53:44.683Z,98627.50
2018-03-28T16:56:12.250Z,98634.51
2018-03-28T16:58:39.826Z,98631.06
2018-03-28T17:01:07.390Z,98636.60
2018-03-28T17:03:34.967Z,98637.55
2018-03-28T17:06:02.539Z,98645.48
2018-03-28T17:08:30.171Z,98642.53
2018-03-28T17:10:57.961Z,98646.41
2018-03-28T17:13:25.558Z,98641.75
2018-03-28T17:15:53.274Z,98648.96
2018-03-28T17:18:20.845Z,98650.59
2018-03-28T17:20:48.631Z,98654.36
2018-03-28T17:23:16.449Z,98656.22
2018-03-28T17:25:44.086Z,98663.38
2018-03-28T17:28:11.669Z,98657.27
2018-03-28T17:30:39.239Z,98658.34
2018-03-28T17:33:06.819Z,98659.04
2018-03-28T17:35:34.387Z,98655.44
2018-03-28T17:38:01.975Z,98659.37
2018-03-28T17:40:29.774Z,98661.73
2018-03-28T17:42:57.409Z,98667.92
2018-03-28T17:45:25.211Z,98672.22
2018-03-28T17:47:53.028Z,98669.25
2018-03-28T17:50:20.641Z,98672.71
2018-03-28T17:52:48.466Z,98670.02
2018-03-28T17:55:16.045Z,98668.96
2018-03-28T17:57:43.776Z,98677.16
2018-03-28T18:00:11.620Z,98673.48
2018-03-28T18:02:39.219Z,98670.25
2018-03-28T18:05:06.832Z,98672.56
2018-03-28T18:07:34.444Z,98668.99
2018-03-28T18:10:02.191Z,98671.84
2018-03-28T18:12:30.010Z,98676.88
2018-03-28T18:14:57.829Z,98687.31
2018-03-28T18:17:25.631Z,98688.67
2018-03-28T18:19:53.466Z,98685.78
2018-03-28T18:22:21.076Z,98688.88
2018-03-28T18:24:48.902Z,98691.89
2018-03-28T18:27:16.721Z,98690.54
2018-03-28T18:29:44.295Z,98692.59
2018-03-28T18:32:12.031Z,98691.56
2018-03-28T18:34:39.875Z,98697.72
2018-03-28T18:37:07.697Z,98703.70
2018-03-28T18:39:35.304Z,98705.57
2018-03-28T18:42:02.928Z,98701.79
2018-03-28T18:44:30.511Z,98703.70
2018-03-28T18:46:58.162Z,98705.78
2018-03-28T18:49:25.730Z,98703.08
2018-03-28T18:51:53.303Z,98700.52
2018-03-28T18:54:20.921Z,98701.32
2018-03-28T18:56:48.501Z,98703.72
2018-03-28T18:59:16.268Z,98704.49
2018-03-28T19:01:43.997Z,98710.23
2018-03-28T19:04:11.671Z,98708.49
2018-03-28T19:06:39.326Z,98711.28
2018-03-28T19:09:07.012Z,98720.82
2018-03-28T19:11:34.642Z,98721.59
2018-03-28T19:14:02.253Z,98721.66
2018-03-28T19:16:30.081Z,98719.22
2018-03-28T19:18:57.898Z,98714.59
2018-03-28T19:21:25.476Z,98713.34
2018-03-28T19:23:53.057Z,98705.92
2018-03-28T19:26:20.937Z,98705.88
2018-03-28T19:28:48.772Z,98709.64
2018-03-28T19:31:16.341Z,98705.08
2018-03-28T19:33:43.905Z,98713.29
2018-03-28T19:36:11.490Z,98717.28
2018-03-28T19:38:39.244Z,98722.53
2018-03-28T19:41:06.826Z,98720.16
2018-03-28T19:43:34.398Z,98722.79
2018-03-28T19:46:02.289Z,98713.70
2018-03-28T19:48:30.016Z,98709.42
2018-03-28T19:50:57.627Z,98717.12
2018-03-28T19:53:25.452Z,98706.27
2018-03-28T19:55:53.049Z,98698.83
2018-03-28T19:58:20.622Z,98691.80
2018-03-28T20:00:48.190Z,98691.57
2018-03-28T20:03:15.822Z,98691.70
2018-03-28T20:05:43.641Z,98695.39
2018-03-28T20:08:11.206Z,98700.00
2018-03-28T20:10:38.774Z,98703.77
2018-03-28T20:13:06.335Z,98702.77
2018-03-28T20:15:33.925Z,98708.91
2018-03-28T20:18:01.486Z,98706.44
2018-03-28T20:20:29.348Z,98707.05
2018-03-28T20:22:57.163Z,98710.76
2018-03-28T20:25:24.730Z,98698.84
2018-03-28T20:27:52.302Z,98696.53
2018-03-28T20:30:19.863Z,98696.63
2018-03-28T20:32:47.511Z,98689.34
2018-03-28T20:35:15.357Z,98690.70
2018-03-28T20:37:43.075Z,98704.57
2018-03-28T20:40:10.690Z,98701.42
2018-03-28T20:42:38.254Z,98703.93
2018-03-28T20:45:05.827Z,98697.28
2018-03-28T20:47:33.385Z,98693.56
2018-03-28T20:50:00.941Z,98690.93
2018-03-28T20:52:28.781Z,98692.31
2018-03-28T20:54:56.338Z,98683.87
2018-03-28T20:57:24.008Z,98693.18
2018-03-28T20:59:51.576Z,98697.86
2018-03-28T21:02:19.231Z,98704.77
2018-03-28T21:04:46.789Z,98709.29
2018-03-28T21:07:14.346Z,98712.72
2018-03-28T21:09:42.106Z,98714.67
2018-03-28T21:12:09.661Z,98706.98
2018-03-28T21:14:37.354Z,98709.40
2018-03-28T21:17:04.939Z,98712.67
2018-03-28T21:19:32.563Z,98716.33
2018-03-28T21:22:00.127Z,98717.61
2018-03-28T21:24:27.687Z,98723.03
2018-03-28T21:26:55.431Z,98719.58
2018-03-28T21:29:22.997Z,98716.66
2018-03-28T21:31:50.578Z,98727.28
2018-03-28T21:34:18.382Z,98724.81
2018-03-28T21:36:46.006Z,98727.28
2018-03-28T21:39:13.821Z,98736.41
2018-03-28T21:41:41.540Z,98723.86
2018-03-28T21:44:09.123Z,98725.22
2018-03-28T21:46:36.714Z,98723.17
2018-03-28T21:49:04.493Z,98730.69
2018-03-28T21:51:32.064Z,98719.58
2018-03-28T21:53:59.935Z,98720.37
2018-03-28T21:56:27.748Z,98708.95
2018-03-28T21:58:55.309Z,98701.57
2018-03-28T22:01:23.085Z,98709.05
2018-03-28T22:03:50.650Z,98711.03
2018-03-28T22:06:18.234Z,98712.03
2018-03-28T22:08:45.789Z,98714.86
2018-03-28T22:11:13.418Z,98710.88
2018-03-28T22:13:40.993Z,98703.44
2018-03-28T22:16:08.562Z,98701.29
2018-03-28T22:18:36.142Z,98695.73
2018-03-28T22:21:03.898Z,98691.66
2018-03-28T22:23:31.493Z,98692.34
2018-03-28T22:25:59.060Z,98692.64
2018-03-28T22:28:26.732Z,98694.73
2018-03-28T22:30:54.318Z,98699.64
2018-03-28T22:33:21.874Z,98709.19
2018-03-28T22:35:49.438Z,98698.88
2018-03-28T22:38:17.153Z,98693.41
2018-03-28T22:40:44.974Z,98697.25
2018-03-28T22:43:12.545Z,98700.45
2018-03-28T22:45:40.174Z,98694.69
2018-03-28T22:48:07.758Z,98688.96
2018-03-28T22:50:35.342Z,98685.03
2018-03-28T22:53:02.906Z,98669.44
2018-03-28T22:55:30.467Z,98658.86
2018-03-28T22:57:58.043Z,98666.28
2018-03-28T23:00:25.812Z,98662.05
2018-03-28T23:02:53.450Z,98671.32
2018-03-28T23:05:21.249Z,98665.95
2018-03-28T23:07:48.810Z,98658.94
2018-03-28T23:10:16.588Z,98649.50
2018-03-28T23:12:44.148Z,98646.75
2018-03-28T23:15:11.717Z,98647.09
2018-03-28T23:17:39.305Z,98640.17
2018-03-28T23:20:06.926Z,98643.36
2018-03-28T23:22:39.270Z,98634.01
2018-03-28T23:25:06.858Z,98636.78
2018-03-28T23:27:34.425Z,98628.59
2018-03-28T23:30:02.014Z,98627.75
2018-03-28T23:32:29.585Z,98625.55
2018-03-28T23:34:57.378Z,98622.33
2018-03-28T23:37:25.169Z,98617.23
2018-03-28T23:39:52.733Z,98615.08
2018-03-28T23:42:20.543Z,98623.01
2018-03-28T23:44:48.109Z,98624.38
2018-03-28T23:47:15.674Z,98629.77
2018-03-28T23:49:43.247Z,98630.84
2018-03-28T23:52:10.798Z,98639.89
2018-03-28T23:54:38.421Z,98648.70
2018-03-28T23:57:05.982Z,98648.02
2018-03-28T23:59:33.716Z,98648.86
